Time;durP1;ratioP1;P1;durP2;ratioP2;P2;SDS_P1;SDS_P2;PMS_P1;PMS_P2;Temp;Humidity;BMP_temperature;BMP_pressure;BME280_temperature;BME280_humidity;BME280_pressure;Samples;Min_cycle;Max_cycle;Signal;HPM_P1;HPM_P2
2023/05/08 00:00:22;;;;;;;0.00;0.00;;;;;;;10.75;97.02;100809.78;6177849;23;20009;-76
2023/05/08 00:02:47;;;;;;;0.00;0.00;;;;;;;10.69;97.31;100805.34;6175874;23;20005;-75
2023/05/08 00:05:13;;;;;;;0.00;0.00;;;;;;;10.60;97.48;100789.41;6177523;23;20001;-75
2023/05/08 00:07:39;;;;;;;0.00;0.00;;;;;;;10.61;97.43;100796.50;6175742;23;20013;-76
2023/05/08 00:10:06;;;;;;;0.00;0.00;;;;;;;10.57;97.66;100789.91;6153658;23;20004;-75
2023/05/08 00:12:31;;;;;;;0.00;0.00;;;;;;;10.52;97.75;100784.38;6154680;23;20013;-75
2023/05/08 00:14:57;;;;;;;0.00;0.00;;;;;;;10.49;98.10;100784.91;6155235;23;20420;-75
2023/05/08 00:17:23;;;;;;;0.00;0.00;;;;;;;10.47;98.15;100792.53;6176056;23;20005;-74
2023/05/08 00:19:48;;;;;;;0.00;0.00;;;;;;;10.38;98.44;100780.41;6154227;23;20008;-75
2023/05/08 00:22:13;;;;;;;0.00;0.00;;;;;;;10.38;98.78;100788.59;6126961;23;20039;-76
2023/05/08 00:24:39;;;;;;;0.00;0.00;;;;;;;10.33;99.71;100791.25;6177336;23;20156;-76
2023/05/08 00:27:05;;;;;;;0.00;0.00;;;;;;;10.27;99.45;100788.44;6148653;23;20380;-76
2023/05/08 00:29:30;;;;;;;0.00;0.00;;;;;;;10.22;99.87;100785.66;6177529;23;20020;-76
2023/05/08 00:31:56;;;;;;;0.00;0.00;;;;;;;10.19;100.00;100788.06;6151310;23;20047;-76
2023/05/08 00:34:21;;;;;;;0.00;0.00;;;;;;;10.10;100.00;100783.06;6198501;23;20064;-76
2023/05/08 00:36:47;;;;;;;0.00;0.00;;;;;;;10.16;100.00;100786.66;6151629;23;20005;-76
2023/05/08 00:39:12;;;;;;;0.00;0.00;;;;;;;10.11;100.00;100778.41;6151364;23;20020;-77
2023/05/08 00:41:38;;;;;;;0.00;0.00;;;;;;;10.10;100.00;100782.22;6154146;23;20013;-76
2023/05/08 00:44:14;;;;;;;0.00;0.00;;;;;;;10.03;99.95;100768.75;6149896;23;20324;-77
2023/05/08 00:46:41;;;;;;;0.00;0.00;;;;;;;10.13;100.00;100782.56;6153723;23;20016;-76
2023/05/08 00:49:10;;;;;;;0.10;0.10;;;;;;;10.16;100.00;100772.19;6152610;23;20005;-76
2023/05/08 00:51:36;;;;;;;0.00;0.00;;;;;;;10.35;100.00;100783.63;6204027;23;20009;-76
2023/05/08 00:54:02;;;;;;;0.10;0.10;;;;;;;10.39;100.00;100768.38;6203823;23;20076;-76
2023/05/08 00:56:29;;;;;;;0.00;0.00;;;;;;;10.54;100.00;100778.66;6176553;23;20079;-76
2023/05/08 00:58:55;;;;;;;0.00;0.00;;;;;;;10.54;100.00;100773.19;6181235;23;20059;-76
2023/05/08 01:01:21;;;;;;;0.00;0.00;;;;;;;10.55;100.00;100762.00;6149175;23;20009;-75
2023/05/08 01:03:47;;;;;;;0.00;0.00;;;;;;;10.65;100.00;100755.81;6177616;23;20301;-76
2023/05/08 01:06:12;;;;;;;0.00;0.00;;;;;;;10.75;100.00;100766.03;6175305;23;20119;-76
2023/05/08 01:08:38;;;;;;;0.00;0.00;;;;;;;10.74;100.00;100756.16;6152341;23;20013;-75
2023/05/08 01:11:20;;;;;;;0.00;0.00;;;;;;;10.79;100.00;100756.19;6176959;23;20013;-77
2023/05/08 01:13:50;;;;;;;0.00;0.00;;;;;;;10.85;100.00;100770.75;6176316;23;21084;-77
2023/05/08 01:16:22;;;;;;;0.00;0.00;;;;;;;10.77;100.00;100758.38;6178771;23;20004;-76
2023/05/08 01:19:13;;;;;;;0.00;0.00;;;;;;;10.76;100.00;100757.56;6179098;23;20096;-75
2023/05/08 01:21:49;;;;;;;0.00;0.00;;;;;;;10.75;100.00;100758.63;6174973;23;20043;-76
2023/05/08 01:24:49;;;;;;;0.00;0.00;;;;;;;10.81;100.00;100765.00;6178856;23;20016;-76
2023/05/08 01:27:43;;;;;;;0.00;0.00;;;;;;;10.68;100.00;100740.81;6179092;23;20008;-75
2023/05/08 01:30:27;;;;;;;0.00;0.00;;;;;;;10.70;100.00;100757.75;6136320;23;20024;-76
2023/05/08 01:32:57;;;;;;;0.00;0.00;;;;;;;10.56;100.00;100749.97;6183111;23;20005;-76
2023/05/08 01:35:44;;;;;;;0.00;0.00;;;;;;;10.56;100.00;100769.13;6209488;23;20008;-75
2023/05/08 01:38:18;;;;;;;0.00;0.00;;;;;;;10.41;100.00;100761.59;6179580;23;20087;-76
2023/05/08 01:40:49;;;;;;;0.10;0.10;;;;;;;10.39;100.00;100763.72;6208226;23;20078;-75
2023/05/08 01:43:30;;;;;;;0.00;0.00;;;;;;;10.31;100.00;100762.25;6181588;23;20008;-77
2023/05/08 01:45:58;;;;;;;0.00;0.00;;;;;;;10.24;100.00;100755.34;6207510;23;20004;-75
2023/05/08 01:48:31;;;;;;;0.00;0.00;;;;;;;10.29;100.00;100763.59;6180802;23;20008;-75
2023/05/08 01:51:06;;;;;;;0.00;0.00;;;;;;;10.26;100.00;100758.63;6182841;23;20059;-74
2023/05/08 01:53:42;;;;;;;0.00;0.00;;;;;;;10.28;100.00;100754.56;6179230;23;20427;-75
2023/05/08 01:56:12;;;;;;;0.00;0.00;;;;;;;10.34;100.00;100749.19;6182670;23;20058;-75
2023/05/08 01:58:40;;;;;;;0.00;0.00;;;;;;;10.45;100.00;100756.41;6203081;23;20004;-75
2023/05/08 02:01:08;;;;;;;0.10;0.10;;;;;;;10.50;100.00;100753.75;6183141;23;20335;-76
2023/05/08 02:03:35;;;;;;;0.00;0.00;;;;;;;10.57;100.00;100765.31;6205836;23;20125;-75
2023/05/08 02:06:01;;;;;;;0.00;0.00;;;;;;;10.59;100.00;100754.13;6207679;23;20038;-76
2023/05/08 02:08:29;;;;;;;0.00;0.00;;;;;;;10.55;100.00;100742.03;6153720;23;20017;-75
2023/05/08 02:10:56;;;;;;;0.00;0.00;;;;;;;10.56;100.00;100755.44;6183814;23;20005;-75
2023/05/08 02:13:23;;;;;;;0.00;0.00;;;;;;;10.54;100.00;100748.56;6204682;23;20088;-75
2023/05/08 02:15:51;;;;;;;0.00;0.00;;;;;;;10.55;100.00;100756.53;6208903;23;20004;-76
2023/05/08 02:18:20;;;;;;;0.00;0.00;;;;;;;10.50;100.00;100745.53;6207769;23;20004;-75
2023/05/08 02:20:49;;;;;;;0.00;0.00;;;;;;;10.45;100.00;100751.78;6180232;23;20004;-76
2023/05/08 02:23:16;;;;;;;0.00;0.00;;;;;;;10.42;100.00;100749.53;6209257;23;20083;-75
2023/05/08 02:25:43;;;;;;;0.00;0.00;;;;;;;10.41;100.00;100752.53;6131459;23;20055;-75
2023/05/08 02:28:10;;;;;;;0.10;0.10;;;;;;;10.46;100.00;100752.59;6180759;23;20011;-76
2023/05/08 02:30:36;;;;;;;0.00;0.00;;;;;;;10.52;100.00;100754.31;6176563;23;20095;-74
2023/05/08 02:33:04;;;;;;;0.00;0.00;;;;;;;10.55;100.00;100745.59;6181224;23;20027;-74
2023/05/08 02:35:31;;;;;;;0.00;0.00;;;;;;;10.62;100.00;100746.19;6209351;23;20005;-74
2023/05/08 02:37:58;;;;;;;0.00;0.00;;;;;;;10.60;100.00;100736.59;6178458;23;20008;-75
2023/05/08 02:40:26;;;;;;;0.00;0.00;;;;;;;10.67;100.00;100730.94;6208479;23;20004;-75
2023/05/08 02:42:52;;;;;;;0.00;0.00;;;;;;;10.76;100.00;100734.84;6179413;23;20001;-75
2023/05/08 02:45:18;;;;;;;0.00;0.00;;;;;;;10.81;100.00;100734.91;6209974;23;20005;-75
2023/05/08 02:47:56;;;;;;;0.10;0.10;;;;;;;10.90;100.00;100736.06;6153713;23;20013;-75
2023/05/08 02:50:54;;;;;;;0.00;0.00;;;;;;;10.91;100.00;100734.97;6208965;23;20322;-75
2023/05/08 02:53:31;;;;;;;0.00;0.00;;;;;;;10.87;100.00;100731.13;6208357;23;20011;-75
2023/05/08 02:56:08;;;;;;;0.00;0.00;;;;;;;10.79;100.00;100737.06;6182836;23;20001;-76
2023/05/08 02:58:48;;;;;;;0.00;0.00;;;;;;;10.68;100.00;100724.38;6206569;23;20305;-74
2023/05/08 03:01:22;;;;;;;0.00;0.00;;;;;;;10.65;100.00;100723.81;6175697;23;20129;-74
2023/05/08 03:03:51;;;;;;;;;;;;;;;10.61;100.00;100724.59;6182010;23;20112;-74
2023/05/08 03:06:21;;;;;;;0.00;0.00;;;;;;;10.54;100.00;100722.06;6179528;23;19990;-75
2023/05/08 03:08:48;;;;;;;0.00;0.00;;;;;;;10.54;100.00;100722.06;6207041;23;20091;-74
2023/05/08 03:11:18;;;;;;;0.00;0.00;;;;;;;10.61;100.00;100722.66;6157109;23;20005;-75
2023/05/08 03:13:46;;;;;;;0.00;0.00;;;;;;;10.61;100.00;100728.13;6181633;23;20007;-74
2023/05/08 03:16:19;;;;;;;0.00;0.00;;;;;;;10.64;100.00;100718.59;6181757;23;20005;-74
2023/05/08 03:18:51;;;;;;;0.00;0.00;;;;;;;10.72;100.00;100728.22;6205685;23;20028;-74
2023/05/08 03:21:19;;;;;;;0.00;0.00;;;;;;;10.71;100.00;100726.59;6184450;23;20028;-74
2023/05/08 03:23:48;;;;;;;0.00;0.00;;;;;;;10.64;100.00;100716.69;6180653;23;20028;-74
2023/05/08 03:26:18;;;;;;;0.00;0.00;;;;;;;10.55;100.00;100707.31;6208378;23;20005;-74
2023/05/08 03:28:46;;;;;;;0.00;0.00;;;;;;;10.46;100.00;100708.88;6205913;23;20051;-75
2023/05/08 03:31:13;;;;;;;0.00;0.00;;;;;;;10.39;100.00;100709.06;6185623;23;20015;-74
2023/05/08 03:33:41;;;;;;;0.00;0.00;;;;;;;10.28;100.00;100697.16;6181934;23;20020;-75
2023/05/08 03:36:07;;;;;;;0.00;0.00;;;;;;;10.34;100.00;100710.91;6207666;23;20422;-75
2023/05/08 03:38:34;;;;;;;0.00;0.00;;;;;;;10.28;100.00;100694.44;6210834;23;20084;-76
2023/05/08 03:41:00;;;;;;;0.00;0.00;;;;;;;10.35;100.00;100707.09;6206157;23;20368;-75
2023/05/08 03:43:27;;;;;;;0.00;0.00;;;;;;;10.42;100.00;100716.75;6185180;23;20190;-76
2023/05/08 03:45:54;;;;;;;0.00;0.00;;;;;;;10.46;100.00;100714.31;6180736;23;20012;-74
2023/05/08 03:48:21;;;;;;;0.00;0.00;;;;;;;10.46;100.00;100708.88;6160010;23;20019;-74
2023/05/08 03:50:47;;;;;;;0.00;0.00;;;;;;;10.49;100.00;100700.13;6185373;23;20478;-75
2023/05/08 03:53:13;;;;;;;0.00;0.00;;;;;;;10.53;100.00;100709.47;6154838;23;20023;-75
2023/05/08 03:55:40;;;;;;;0.00;0.00;;;;;;;10.52;100.00;100705.09;6185921;23;20004;-75
2023/05/08 03:58:27;;;;;;;0.00;0.00;;;;;;;10.62;100.00;100718.03;6156518;23;20012;-75
2023/05/08 04:01:25;;;;;;;0.00;0.00;;;;;;;10.69;100.00;100717.81;6212302;23;20012;-75
2023/05/08 04:04:04;;;;;;;0.00;0.00;;;;;;;10.71;100.00;100712.94;6159057;23;20008;-74
2023/05/08 04:06:52;;;;;;;0.00;0.00;;;;;;;10.73;100.00;100708.00;6180240;23;20001;-75
2023/05/08 04:10:05;;;;;;;0.00;0.00;;;;;;;10.80;100.00;100708.63;6208394;23;20639;-75
2023/05/08 04:12:53;;;;;;;0.00;0.00;;;;;;;10.77;100.00;100698.19;6098943;23;20032;-76
2023/05/08 04:15:25;;;;;;;0.00;0.00;;;;;;;10.89;100.00;100717.16;6179769;23;20050;-75
2023/05/08 04:17:58;;;;;;;0.00;0.00;;;;;;;10.92;100.00;100706.53;6209744;23;20366;-75
2023/05/08 04:20:28;;;;;;;0.00;0.00;;;;;;;10.95;100.00;100706.03;6206860;23;20001;-77
2023/05/08 04:22:54;;;;;;;0.00;0.00;;;;;;;11.00;100.00;100710.69;6181955;23;20001;-75
2023/05/08 04:25:20;;;;;;;0.00;0.00;;;;;;;11.03;100.00;100712.91;6204658;23;20016;-75
2023/05/08 04:27:47;;;;;;;0.00;0.00;;;;;;;11.02;100.00;100710.44;6182270;23;20423;-75
2023/05/08 04:30:13;;;;;;;0.00;0.00;;;;;;;10.94;100.00;100717.22;6154997;23;20092;-74
2023/05/08 04:32:40;;;;;;;0.00;0.00;;;;;;;10.90;100.00;100718.84;6180200;23;20087;-76
2023/05/08 04:35:06;;;;;;;0.00;0.00;;;;;;;10.79;100.00;100709.69;6183255;23;20022;-75
2023/05/08 04:37:31;;;;;;;0.00;0.00;;;;;;;10.75;100.00;100714.06;6179546;23;20008;-76
2023/05/08 04:39:58;;;;;;;0.00;0.00;;;;;;;10.76;100.00;100716.53;6183363;23;20008;-73
2023/05/08 04:42:25;;;;;;;0.00;0.00;;;;;;;10.76;100.00;100718.44;6206534;23;20008;-74
2023/05/08 04:44:51;;;;;;;0.00;0.00;;;;;;;10.82;100.00;100728.34;6156561;23;20012;-76
2023/05/08 04:47:16;;;;;;;0.00;0.00;;;;;;;10.87;100.00;100725.63;6183854;23;20309;-75
2023/05/08 04:49:42;;;;;;;0.00;0.00;;;;;;;10.89;100.00;100723.47;6206294;23;20079;-75
2023/05/08 04:52:07;;;;;;;0.00;0.00;;;;;;;10.97;100.00;100725.72;6183515;23;20017;-76
2023/05/08 04:54:33;;;;;;;0.00;0.00;;;;;;;11.05;100.00;100729.06;6207343;23;20009;-74
2023/05/08 04:56:58;;;;;;;0.00;0.00;;;;;;;11.12;100.00;100730.50;6158802;23;20352;-74
2023/05/08 04:59:24;;;;;;;0.00;0.00;;;;;;;11.08;100.00;100725.81;6180481;23;20004;-75
2023/05/08 05:01:50;;;;;;;0.00;0.00;;;;;;;11.10;100.00;100726.38;6158009;23;20518;-75
2023/05/08 05:04:16;;;;;;;0.00;0.00;;;;;;;11.15;100.00;100734.63;6182513;23;20008;-76
2023/05/08 05:06:41;;;;;;;0.00;0.00;;;;;;;11.16;100.00;100733.53;6179422;23;20028;-75
2023/05/08 05:09:08;;;;;;;0.00;0.00;;;;;;;11.18;100.00;100732.19;6183286;23;20036;-77
2023/05/08 05:11:33;;;;;;;0.00;0.00;;;;;;;11.24;100.00;100741.25;6176858;23;20005;-76
2023/05/08 05:13:59;;;;;;;0.00;0.00;;;;;;;11.24;100.00;100726.75;6183394;23;20009;-75
2023/05/08 05:16:25;;;;;;;0.00;0.00;;;;;;;11.32;100.00;100738.03;6181337;23;20088;-75
2023/05/08 05:18:50;;;;;;;0.00;0.00;;;;;;;11.39;100.00;100739.69;6182277;23;20012;-77
2023/05/08 05:21:16;;;;;;;0.00;0.00;;;;;;;11.33;100.00;100734.22;6158706;23;20078;-76
2023/05/08 05:23:41;;;;;;;0.00;0.00;;;;;;;11.38;100.00;100736.16;6179371;23;20379;-80
2023/05/08 05:26:06;;;;;;;0.00;0.00;;;;;;;11.38;100.00;100736.16;6182973;23;20020;-78
2023/05/08 05:28:32;;;;;;;0.00;0.00;;;;;;;11.35;100.00;100732.03;6178863;23;20001;-76
2023/05/08 05:30:58;;;;;;;0.00;0.00;;;;;;;11.23;100.00;100717.72;6155820;23;20013;-78
2023/05/08 05:33:26;;;;;;;0.00;0.00;;;;;;;11.35;100.00;100732.03;6209638;23;20067;-77
2023/05/08 05:36:00;;;;;;;0.00;0.00;;;;;;;11.29;100.00;100719.41;6204447;23;20499;-77
2023/05/08 05:38:25;;;;;;;;;;;;;;;11.47;100.00;100742.78;6209394;23;20047;-76
2023/05/08 05:40:51;;;;;;;0.00;0.00;;;;;;;11.48;100.00;100735.41;6178555;23;19908;-75
2023/05/08 05:43:16;;;;;;;0.00;0.00;;;;;;;11.42;100.00;100730.97;6156965;23;20035;-78
2023/05/08 05:45:42;;;;;;;0.00;0.00;;;;;;;11.45;100.00;100722.25;6210409;23;19992;-76
2023/05/08 05:48:10;;;;;;;0.00;0.00;;;;;;;11.49;100.00;100726.06;6206018;23;20005;-76
2023/05/08 05:50:36;;;;;;;0.00;0.00;;;;;;;11.54;100.00;100734.34;6182218;23;20341;-76
2023/05/08 05:53:02;;;;;;;0.00;0.00;;;;;;;11.61;100.00;100726.72;6179113;23;20076;-76
2023/05/08 05:55:27;;;;;;;0.00;0.00;;;;;;;11.62;100.00;100731.09;6208895;23;20489;-75
2023/05/08 05:57:53;;;;;;;0.00;0.00;;;;;;;11.60;100.00;100725.06;6153600;23;20096;-76
2023/05/08 06:00:20;;;;;;;0.00;0.00;;;;;;;11.76;100.00;100733.38;6209643;23;20078;-75
2023/05/08 06:02:45;;;;;;;0.00;0.00;;;;;;;11.75;100.00;100735.25;6179563;23;20317;-75
2023/05/08 06:05:11;;;;;;;0.00;0.00;;;;;;;11.74;100.00;100727.31;6182023;23;20032;-74
2023/05/08 06:07:37;;;;;;;0.10;0.10;;;;;;;11.67;100.00;100711.13;6181446;23;20009;-76
2023/05/08 06:10:02;;;;;;;0.00;0.00;;;;;;;11.82;100.00;100729.56;6203205;23;20028;-75
2023/05/08 06:12:28;;;;;;;0.00;0.00;;;;;;;11.80;100.00;100731.75;6185597;23;20311;-75
2023/05/08 06:14:56;;;;;;;0.00;0.00;;;;;;;11.72;99.78;100724.03;6153419;23;20004;-75
2023/05/08 06:17:21;;;;;;;0.00;0.00;;;;;;;11.76;99.57;100736.09;6160944;23;20009;-75
2023/05/08 06:19:49;;;;;;;0.00;0.00;;;;;;;11.74;99.30;100727.31;6178903;23;20475;-76
2023/05/08 06:22:18;;;;;;;0.00;0.00;;;;;;;11.77;99.03;100732.25;6207135;23;20073;-76
2023/05/08 06:24:44;;;;;;;0.00;0.00;;;;;;;11.74;99.47;100722.66;6184671;23;20035;-76
2023/05/08 06:27:10;;;;;;;0.00;0.00;;;;;;;11.79;99.82;100724.59;6179883;23;20343;-75
2023/05/08 06:29:35;;;;;;;0.00;0.00;;;;;;;11.78;99.37;100717.47;6183246;23;20020;-77
2023/05/08 06:32:01;;;;;;;0.00;0.00;;;;;;;11.84;99.58;100732.84;6179638;23;20087;-76
2023/05/08 06:34:28;;;;;;;0.00;0.00;;;;;;;11.76;100.00;100725.97;6206812;23;20158;-75
2023/05/08 06:36:54;;;;;;;0.00;0.00;;;;;;;11.67;100.00;100717.41;6182460;23;20004;-76
2023/05/08 06:39:19;;;;;;;0.00;0.00;;;;;;;11.72;100.00;100734.97;6178871;23;20011;-74
2023/05/08 06:41:48;;;;;;;0.00;0.00;;;;;;;11.64;100.00;100717.97;6183585;23;20038;-75
2023/05/08 06:44:14;;;;;;;0.00;0.00;;;;;;;11.67;100.00;100730.31;6202269;23;20461;-75
2023/05/08 06:46:40;;;;;;;0.00;0.00;;;;;;;11.66;100.00;100732.19;6206068;23;20083;-74
2023/05/08 06:49:06;;;;;;;0.00;0.00;;;;;;;11.62;100.00;100731.09;6206922;23;20066;-74
2023/05/08 06:51:31;;;;;;;0.00;0.00;;;;;;;11.61;100.00;100726.72;6204638;23;20008;-73
2023/05/08 06:53:57;;;;;;;0.00;0.00;;;;;;;11.57;100.00;100727.50;6155996;23;20016;-74
2023/05/08 06:56:23;;;;;;;0.00;0.00;;;;;;;11.56;100.00;100723.94;6181507;23;20039;-74
2023/05/08 06:58:49;;;;;;;0.00;0.00;;;;;;;11.53;100.00;100727.19;6184661;23;20627;-73
2023/05/08 07:01:14;;;;;;;0.00;0.00;;;;;;;11.55;100.00;100725.03;6211491;23;20446;-76
2023/05/08 07:03:40;;;;;;;0.00;0.00;;;;;;;11.54;100.00;100728.84;6178260;23;20012;-74
2023/05/08 07:06:08;;;;;;;0.00;0.00;;;;;;;11.49;100.00;100726.06;6159955;23;20008;-75
2023/05/08 07:08:34;;;;;;;0.00;0.00;;;;;;;11.50;100.00;100727.72;6179658;23;20016;-75
2023/05/08 07:10:59;;;;;;;0.03;0.03;;;;;;;11.52;100.00;100736.50;6208252;23;20004;-74
2023/05/08 07:13:25;;;;;;;0.00;0.00;;;;;;;11.51;100.00;100729.41;6177024;23;20001;-74
2023/05/08 07:15:51;;;;;;;0.00;0.00;;;;;;;11.57;100.00;100728.31;6156710;23;20012;-74
2023/05/08 07:18:34;;;;;;;0.00;0.00;;;;;;;11.60;100.00;100722.31;6209310;23;20009;-74
2023/05/08 07:21:14;;;;;;;;;;;;;;;;;;;;;
2023/05/08 07:23:40;;;;;;;0.00;0.00;;;;;;;11.61;100.00;100723.97;6182034;23;20087;-75
2023/05/08 07:26:18;;;;;;;;;;;;;;;;;;;;;
2023/05/08 07:28:54;;;;;;;;;;;;;;;;;;;;;
2023/05/08 07:31:25;;;;;;;0.00;0.00;;;;;;;11.48;100.00;100702.53;6208419;23;20030;-75
2023/05/08 07:33:55;;;;;;;0.00;0.00;;;;;;;11.56;100.00;100721.19;6205017;23;20103;-75
2023/05/08 07:36:42;;;;;;;0.00;0.00;;;;;;;11.50;100.00;100711.31;6172237;23;20032;-74
2023/05/08 07:39:10;;;;;;;0.00;0.00;;;;;;;11.53;100.00;100721.72;6203489;23;20019;-74
2023/05/08 07:41:36;;;;;;;0.00;0.00;;;;;;;11.57;100.00;100736.53;6158257;23;20008;-75
2023/05/08 07:44:02;;;;;;;0.10;0.10;;;;;;;11.52;100.00;100736.50;6208080;23;20083;-75
2023/05/08 07:46:51;;;;;;;0.00;0.00;;;;;;;11.38;100.00;100714.25;6181620;23;20569;-75
2023/05/08 07:49:17;;;;;;;0.00;0.00;;;;;;;11.38;100.00;100714.25;6208933;23;20419;-75
2023/05/08 07:51:50;;;;;;;0.00;0.00;;;;;;;11.33;100.00;100704.09;6208588;23;20000;-73
2023/05/08 07:54:15;;;;;;;0.00;0.00;;;;;;;11.46;100.00;100723.88;6208211;23;20012;-74
2023/05/08 07:56:41;;;;;;;0.00;0.00;;;;;;;11.38;100.00;100707.97;6182356;23;20289;-75
2023/05/08 07:59:13;;;;;;;0.00;0.00;;;;;;;11.48;100.00;100718.97;6135137;23;20665;-74
2023/05/08 08:01:48;;;;;;;0.00;0.00;;;;;;;11.54;100.00;100712.44;6156568;23;20008;-74
2023/05/08 08:04:23;;;;;;;0.00;0.00;;;;;;;11.65;100.00;100707.81;6183215;23;20091;-75
2023/05/08 08:22:18;;;;;;;0.00;0.00;;;;;;;11.51;100.00;100723.91;6226148;22;20438;-74
2023/05/08 08:24:46;;;;;;;0.00;0.00;;;;;;;11.31;100.00;100706.25;6211229;23;20495;-75
2023/05/08 08:27:13;;;;;;;0.00;0.00;;;;;;;11.35;100.00;100704.63;6181220;23;20004;-75
2023/05/08 08:29:55;;;;;;;0.08;0.08;;;;;;;11.36;100.00;100705.50;6233745;23;20004;-76
2023/05/08 08:32:24;;;;;;;0.00;0.00;;;;;;;11.50;100.00;100746.91;6179349;23;20043;-75
2023/05/08 08:35:07;;;;;;;0.00;0.00;;;;;;;11.35;100.00;100721.06;6209711;23;20012;-75
2023/05/08 08:38:00;;;;;;;0.00;0.00;;;;;;;11.25;100.00;100693.63;6205876;23;20407;-76
2023/05/08 08:40:27;;;;;;;0.08;0.08;;;;;;;11.28;100.00;100693.09;6211032;23;19992;-76
2023/05/08 08:43:05;;;;;;;;;;;;;;;;;;;;;
2023/05/08 08:45:31;;;;;;;0.00;0.00;;;;;;;11.21;100.00;100683.47;6233456;23;20386;-75
2023/05/08 08:48:03;;;;;;;0.00;0.00;;;;;;;11.25;100.00;100696.38;6208327;23;20024;-76
2023/05/08 08:50:32;;;;;;;0.00;0.00;;;;;;;11.27;100.00;100713.38;6209226;23;20005;-76
2023/05/08 08:53:31;;;;;;;0.00;0.00;;;;;;;11.33;100.00;100731.47;6202246;23;20004;-77
2023/05/08 08:55:59;;;;;;;0.00;0.00;;;;;;;11.21;100.00;100708.94;6186161;23;20438;-75
2023/05/08 08:58:42;;;;;;;0.00;0.00;;;;;;;11.46;100.00;100732.09;6206176;23;20438;-77
2023/05/08 09:01:13;;;;;;;0.00;0.00;;;;;;;11.73;100.00;100729.22;6196618;23;19989;-76
2023/05/08 09:03:39;;;;;;;0.00;0.00;;;;;;;11.76;100.00;100714.19;6193123;23;20009;-76
2023/05/08 09:06:05;;;;;;;0.00;0.00;;;;;;;11.81;100.00;100709.56;6203010;23;20004;-76
2023/05/08 10:37:19;;;;;;;0.00;0.00;;;;;;;13.97;88.50;100689.53;6220090;22;20029;-81
2023/05/08 10:39:46;;;;;;;0.00;0.00;;;;;;;13.84;88.78;100695.63;6189159;23;20016;-79
2023/05/08 10:42:15;;;;;;;0.00;0.00;;;;;;;13.55;90.01;100683.38;6185889;23;20067;-80
2023/05/08 10:44:41;;;;;;;0.00;0.00;;;;;;;13.42;91.15;100679.28;6184789;23;20018;-82
2023/05/08 10:47:29;;;;;;;0.00;0.00;;;;;;;13.36;91.55;100685.91;6138829;23;20016;-83
2023/05/08 10:50:07;;;;;;;0.00;0.00;;;;;;;13.17;92.95;100696.63;6198431;23;20000;-84
2023/05/08 10:52:44;;;;;;;0.00;0.00;;;;;;;13.01;93.66;100673.84;6186699;23;20010;-82
2023/05/08 10:55:22;;;;;;;0.00;0.00;;;;;;;13.10;94.51;100694.16;6185975;23;20039;-80
2023/05/08 10:58:13;;;;;;;;;;;;;;;;;;;;;
2023/05/08 11:01:05;;;;;;;0.00;0.00;;;;;;;12.91;95.12;100673.88;6212657;23;20079;-82
2023/05/08 11:03:32;;;;;;;0.00;0.00;;;;;;;13.02;94.88;100680.16;6211202;23;20026;-79
2023/05/08 11:05:58;;;;;;;0.00;0.00;;;;;;;13.12;94.93;100679.31;6208720;23;20004;-78
2023/05/08 11:08:26;;;;;;;0.00;0.00;;;;;;;12.98;94.98;100660.69;6160036;23;20004;-81
2023/05/08 11:11:06;;;;;;;0.00;0.00;;;;;;;13.22;95.12;100679.31;6185183;23;20058;-80
2023/05/08 11:13:33;;;;;;;0.00;0.00;;;;;;;13.26;95.00;100697.69;6211493;23;20004;-80
2023/05/08 11:15:58;;;;;;;0.00;0.00;;;;;;;13.09;95.16;100670.53;6184284;23;20096;-80
2023/05/08 11:18:24;;;;;;;0.00;0.00;;;;;;;13.09;96.04;100670.53;6159772;23;20063;-80
2023/05/08 11:20:56;;;;;;;0.00;0.00;;;;;;;13.30;96.55;100670.47;6185780;23;20669;-78
2023/05/08 11:23:28;;;;;;;0.00;0.00;;;;;;;13.42;95.93;100662.81;6207455;23;20000;-80
2023/05/08 11:26:08;;;;;;;0.00;0.00;;;;;;;13.66;94.92;100666.84;6186006;23;20008;-78
2023/05/08 11:28:38;;;;;;;0.00;0.00;;;;;;;13.72;93.71;100676.72;6181635;23;20097;-82
2023/05/08 11:31:07;;;;;;;0.00;0.00;;;;;;;13.59;93.31;100700.97;6186645;23;20096;-78
2023/05/08 11:33:36;;;;;;;0.00;0.00;;;;;;;13.19;94.60;100682.63;6184031;23;20004;-78
2023/05/08 11:36:24;;;;;;;0.00;0.00;;;;;;;13.00;96.70;100674.13;6184224;22;20055;-77
2023/05/08 11:39:11;;;;;;;0.00;0.00;;;;;;;12.94;97.77;100673.31;6182914;23;20062;-78
2023/05/08 11:41:38;;;;;;;0.00;0.00;;;;;;;12.95;97.36;100652.16;6184515;23;20001;-78
2023/05/08 11:44:07;;;;;;;0.00;0.00;;;;;;;13.00;97.35;100647.50;6158508;23;20027;-79
2023/05/08 11:47:10;;;;;;;0.00;0.00;;;;;;;13.25;96.71;100656.78;6187359;23;20008;-80
2023/05/08 11:49:35;;;;;;;0.00;0.00;;;;;;;13.26;95.53;100625.47;6178159;23;20461;-78
2023/05/08 11:52:03;;;;;;;0.00;0.00;;;;;;;13.58;95.45;100616.88;6159179;23;20013;-79
2023/05/08 11:54:32;;;;;;;0.00;0.00;;;;;;;13.98;93.96;100635.38;6184121;23;20099;-77
2023/05/08 11:56:58;;;;;;;0.00;0.00;;;;;;;13.96;91.58;100619.16;6185723;23;20016;-79
2023/05/08 11:59:26;;;;;;;0.00;0.00;;;;;;;14.06;91.09;100623.75;6207842;23;20023;-78
2023/05/08 12:01:51;;;;;;;0.00;0.00;;;;;;;14.08;90.02;100627.88;6213179;23;20027;-77
2023/05/08 12:04:17;;;;;;;0.00;0.00;;;;;;;13.93;90.46;100634.28;6157948;23;20086;-78
2023/05/08 12:06:47;;;;;;;0.05;0.05;;;;;;;13.97;91.22;100645.53;6161195;23;20009;-78
2023/05/08 12:09:17;;;;;;;0.00;0.00;;;;;;;14.11;91.21;100645.75;6211578;23;20054;-76
2023/05/08 12:11:56;;;;;;;0.00;0.00;;;;;;;13.94;89.87;100652.44;6212035;23;20404;-78
2023/05/08 12:14:22;;;;;;;0.00;0.00;;;;;;;13.75;90.29;100626.69;6185951;23;20054;-78
2023/05/08 12:16:47;;;;;;;0.00;0.00;;;;;;;13.72;90.81;100632.75;6181130;23;20005;-77
2023/05/08 12:19:15;;;;;;;0.00;0.00;;;;;;;13.77;91.60;100644.53;6137254;23;20112;-80
2023/05/08 12:21:59;;;;;;;0.00;0.00;;;;;;;13.56;91.31;100618.25;6177311;23;20399;-78
2023/05/08 12:24:25;;;;;;;0.00;0.00;;;;;;;13.58;91.60;100616.88;6158865;23;20301;-77
2023/05/08 12:26:56;;;;;;;0.00;0.00;;;;;;;13.67;91.89;100625.34;6156521;23;20016;-80
2023/05/08 12:29:22;;;;;;;0.00;0.00;;;;;;;13.66;92.19;100600.91;6185036;23;20011;-78
2023/05/08 12:31:47;;;;;;;0.00;0.00;;;;;;;13.87;91.79;100610.69;6186385;23;20060;-80
2023/05/08 12:34:14;;;;;;;0.00;0.00;;;;;;;14.12;90.96;100612.47;6159869;23;20938;-80
2023/05/08 12:36:39;;;;;;;0.00;0.00;;;;;;;14.34;89.58;100610.38;6186116;22;20084;-80
2023/05/08 12:39:13;;;;;;;0.00;0.00;;;;;;;14.56;89.00;100627.25;6162016;23;20068;-80
2023/05/08 12:41:49;;;;;;;0.00;0.00;;;;;;;14.64;88.21;100590.88;6214008;23;20001;-80
2023/05/08 12:48:47;;;;;;;;;;;;;;;;;;;;;
2023/05/08 12:51:13;;;;;;;0.00;0.00;;;;;;;14.21;88.19;100622.84;6091108;23;21023;-77
2023/05/08 12:53:38;;;;;;;0.00;0.00;;;;;;;14.06;88.90;100610.00;6183297;23;20088;-78
2023/05/08 12:56:05;;;;;;;0.00;0.00;;;;;;;13.82;89.74;100627.19;6136008;23;20028;-77
2023/05/08 12:58:36;;;;;;;0.00;0.00;;;;;;;13.65;91.41;100624.78;6187822;23;20482;-77
2023/05/08 13:01:23;;;;;;;0.00;0.00;;;;;;;13.48;92.54;100596.84;6186374;23;20024;-77
2023/05/08 13:03:52;;;;;;;0.00;0.00;;;;;;;13.58;92.93;100599.53;6185424;23;20008;-78
2023/05/08 13:06:21;;;;;;;0.00;0.00;;;;;;;13.70;93.40;100610.22;6184524;23;20309;-77
2023/05/08 13:08:56;;;;;;;0.00;0.00;;;;;;;13.64;92.90;100592.09;6160656;23;20154;-78
2023/05/08 13:11:34;;;;;;;0.00;0.00;;;;;;;13.79;93.05;100601.09;6161782;23;20100;-79
2023/05/08 13:14:00;;;;;;;0.00;0.00;;;;;;;13.90;92.69;100596.38;6213047;23;20012;-78
2023/05/08 13:16:27;;;;;;;0.00;0.00;;;;;;;13.95;92.13;100576.28;6138611;23;20005;-78
2023/05/08 13:18:53;;;;;;;0.00;0.00;;;;;;;13.96;91.87;100566.94;6185868;23;20036;-77
2023/05/08 13:21:18;;;;;;;0.00;0.00;;;;;;;13.94;92.04;100563.63;6138111;23;20012;-77
2023/05/08 13:23:49;;;;;;;0.00;0.00;;;;;;;13.97;92.17;100574.03;6159859;23;20867;-77
2023/05/08 13:26:19;;;;;;;0.00;0.00;;;;;;;13.79;92.36;100579.09;6161522;23;20028;-77
2023/05/08 13:28:52;;;;;;;0.00;0.00;;;;;;;13.82;93.39;100593.41;6180435;23;20013;-78